Harrington, South Dakota
Current Conditions -  °F | °C
As of 4:52 PM on Sunday 21 Dec 2014 (Local Time) from KIEN Reporting Station
Overcast Overcast  
Wind Chill: 36°   Ceiling: 6500
Heat Index: 42°   Visibility: 10mi
Dew Point: 29°   Wind: 10mph
Humidity: 60%   Direction: 310°NW
Pressure: 29.44"   Gusts: NA
Location:  43.2013°N, 101.679°W
Report Text: KIEN 212352Z AUTO 31009KT 10SM BKN065 OVC100 06/M02 A2944 RMK AO2 SLP985 T00561017 10100 20039 53016
Loading
Personal Weather Stations






























Interactive Weather Map New forecast layout! Learn more

10-Day Weather Forecast

Advertisements
Track Severe Weather on mobile